Kezdőlap
METAR-TAF:

METAR-TAF

Repülőterek :

Air Force Base Waterkloof

Waterkloof, Dél-afrikai Köztársaság

földrajzi szélesség: 25-50S, földrajzi hosszúság: 028-13E, magasság: 1498 m

Jelenlegi meteorológiai megfigyelések

A jelentés 31 perccel ezelõtt készült, 23:00 UTC
Kelet-északkeleti szél 2 kt
Hőmérséklet
Légköri nyomás 1025 hPa

METAR: FAWK 202300Z AUTO 07002KT //// // ////// ///// Q1025

Idő: 01:31 (23:31 UTC)

Előrejelzés

A jelentés 7 órával és 31 perccel ezelõtt készült, 16:00 UTC
Az előrejelzés 20-én 10 óra UTC és 20-én 18 óra UTC között érvényes
Északkeleti szél 4 kt
Látótávolság 10 km, vagy több
Szórványos felhőzet 3000 lábon

TAF: FAWK 201600Z 2010/2018 05004KT 9999 SCT030 TX19/2013Z TN15/2018Z

Meteorológiai megfigyelések és előrejelzések több, mint 4000 repülőtéren (METAR és TAF jelentéseket).

A térképen piros és sárga pontok jelzik az elérhető meteorológiai állomásokat.

Mozgassa az egeret a pont fölött, hogy megjelenjen az állomás neve.

Azután kattintson az időjárási megfigyelések és előrejelzések megtekintéséhez.

A térkép megváltoztatása: kattintson a fekete keresztel jelölt zöld gombra ráközelítéshez, a vonallal jelölt zöld gombra távolításhoz, vagy a zöld nyilakra a szomszédos térképek eléréséhez.


METAR-TAF: